sensor_id;sensor_type;location;lat;lon;timestamp;P1;durP1;ratioP1;P2;durP2;ratioP2
21729;SDS011;11027;51.030;13.812;2023-03-14T00:00:35;1.42;;;0.75;;
21729;SDS011;11027;51.030;13.812;2023-03-14T00:03:00;2.22;;;0.90;;
21729;SDS011;11027;51.030;13.812;2023-03-14T00:05:25;0.55;;;0.55;;
21729;SDS011;11027;51.030;13.812;2023-03-14T00:07:50;0.70;;;0.70;;
21729;SDS011;11027;51.030;13.812;2023-03-14T00:10:16;1.48;;;0.98;;
21729;SDS011;11027;51.030;13.812;2023-03-14T00:12:41;1.63;;;0.70;;
21729;SDS011;11027;51.030;13.812;2023-03-14T00:15:07;1.50;;;0.95;;
21729;SDS011;11027;51.030;13.812;2023-03-14T00:17:34;1.25;;;0.75;;
21729;SDS011;11027;51.030;13.812;2023-03-14T00:20:01;0.75;;;0.65;;
21729;SDS011;11027;51.030;13.812;2023-03-14T00:22:33;2.60;;;0.70;;
21729;SDS011;11027;51.030;13.812;2023-03-14T00:25:05;1.77;;;0.70;;
21729;SDS011;11027;51.030;13.812;2023-03-14T00:27:32;1.45;;;0.80;;
21729;SDS011;11027;51.030;13.812;2023-03-14T00:29:57;1.45;;;1.00;;
21729;SDS011;11027;51.030;13.812;2023-03-14T00:32:23;1.17;;;0.82;;
21729;SDS011;11027;51.030;13.812;2023-03-14T00:34:48;3.53;;;1.13;;
21729;SDS011;11027;51.030;13.812;2023-03-14T00:37:13;2.08;;;1.10;;
21729;SDS011;11027;51.030;13.812;2023-03-14T00:39:39;1.95;;;1.13;;
21729;SDS011;11027;51.030;13.812;2023-03-14T00:42:04;1.77;;;1.35;;
21729;SDS011;11027;51.030;13.812;2023-03-14T00:44:29;0.90;;;0.90;;
21729;SDS011;11027;51.030;13.812;2023-03-14T00:46:55;1.80;;;1.20;;
21729;SDS011;11027;51.030;13.812;2023-03-14T00:49:20;2.45;;;1.55;;
21729;SDS011;11027;51.030;13.812;2023-03-14T00:51:45;2.17;;;1.27;;
21729;SDS011;11027;51.030;13.812;2023-03-14T00:54:10;2.08;;;1.25;;
21729;SDS011;11027;51.030;13.812;2023-03-14T00:56:36;1.92;;;1.50;;
21729;SDS011;11027;51.030;13.812;2023-03-14T00:59:01;3.42;;;1.67;;
21729;SDS011;11027;51.030;13.812;2023-03-14T01:01:26;1.90;;;1.30;;
21729;SDS011;11027;51.030;13.812;2023-03-14T01:03:52;3.30;;;1.55;;
21729;SDS011;11027;51.030;13.812;2023-03-14T01:06:20;1.83;;;1.50;;
21729;SDS011;11027;51.030;13.812;2023-03-14T01:08:47;4.20;;;1.65;;
21729;SDS011;11027;51.030;13.812;2023-03-14T01:11:14;1.55;;;1.42;;
21729;SDS011;11027;51.030;13.812;2023-03-14T01:13:42;1.90;;;1.70;;
21729;SDS011;11027;51.030;13.812;2023-03-14T01:16:08;1.92;;;1.63;;
21729;SDS011;11027;51.030;13.812;2023-03-14T01:18:35;2.85;;;1.75;;
21729;SDS011;11027;51.030;13.812;2023-03-14T01:21:01;2.75;;;1.77;;
21729;SDS011;11027;51.030;13.812;2023-03-14T01:23:28;2.38;;;1.75;;
21729;SDS011;11027;51.030;13.812;2023-03-14T01:25:53;1.98;;;1.70;;
21729;SDS011;11027;51.030;13.812;2023-03-14T01:28:19;2.33;;;2.10;;
21729;SDS011;11027;51.030;13.812;2023-03-14T01:30:44;3.78;;;1.90;;
21729;SDS011;11027;51.030;13.812;2023-03-14T01:33:09;2.10;;;1.90;;
21729;SDS011;11027;51.030;13.812;2023-03-14T01:35:36;2.25;;;2.05;;
21729;SDS011;11027;51.030;13.812;2023-03-14T01:38:01;2.22;;;2.03;;
21729;SDS011;11027;51.030;13.812;2023-03-14T01:40:26;2.40;;;2.00;;
21729;SDS011;11027;51.030;13.812;2023-03-14T01:42:56;2.15;;;2.00;;
21729;SDS011;11027;51.030;13.812;2023-03-14T01:48:25;2.50;;;2.30;;
21729;SDS011;11027;51.030;13.812;2023-03-14T01:50:53;2.47;;;2.00;;
21729;SDS011;11027;51.030;13.812;2023-03-14T01:53:19;2.20;;;2.00;;
21729;SDS011;11027;51.030;13.812;2023-03-14T01:55:46;1.88;;;1.77;;
21729;SDS011;11027;51.030;13.812;2023-03-14T01:58:13;2.47;;;2.00;;
21729;SDS011;11027;51.030;13.812;2023-03-14T02:00:41;2.17;;;1.92;;
21729;SDS011;11027;51.030;13.812;2023-03-14T02:03:07;2.10;;;1.88;;
21729;SDS011;11027;51.030;13.812;2023-03-14T02:05:38;2.28;;;2.08;;
21729;SDS011;11027;51.030;13.812;2023-03-14T02:08:06;2.53;;;2.08;;
21729;SDS011;11027;51.030;13.812;2023-03-14T02:10:41;1.77;;;1.67;;
21729;SDS011;11027;51.030;13.812;2023-03-14T02:13:09;2.40;;;2.20;;
21729;SDS011;11027;51.030;13.812;2023-03-14T02:15:35;2.58;;;2.00;;
21729;SDS011;11027;51.030;13.812;2023-03-14T02:18:01;3.22;;;2.03;;
21729;SDS011;11027;51.030;13.812;2023-03-14T02:20:45;2.28;;;2.00;;
21729;SDS011;11027;51.030;13.812;2023-03-14T02:23:20;1.98;;;1.80;;
21729;SDS011;11027;51.030;13.812;2023-03-14T02:26:10;1.88;;;1.73;;
21729;SDS011;11027;51.030;13.812;2023-03-14T02:28:40;2.75;;;1.88;;
21729;SDS011;11027;51.030;13.812;2023-03-14T02:31:05;3.58;;;1.92;;
21729;SDS011;11027;51.030;13.812;2023-03-14T02:33:33;3.17;;;2.00;;
21729;SDS011;11027;51.030;13.812;2023-03-14T02:36:01;2.85;;;2.15;;
21729;SDS011;11027;51.030;13.812;2023-03-14T02:41:16;3.25;;;1.85;;
21729;SDS011;11027;51.030;13.812;2023-03-14T02:43:42;1.70;;;1.60;;
21729;SDS011;11027;51.030;13.812;2023-03-14T02:46:08;2.42;;;1.67;;
21729;SDS011;11027;51.030;13.812;2023-03-14T02:48:36;2.88;;;1.70;;
21729;SDS011;11027;51.030;13.812;2023-03-14T02:51:06;1.95;;;1.48;;
21729;SDS011;11027;51.030;13.812;2023-03-14T02:53:33;3.45;;;1.80;;
21729;SDS011;11027;51.030;13.812;2023-03-14T02:56:00;2.35;;;1.58;;
21729;SDS011;11027;51.030;13.812;2023-03-14T02:58:25;2.85;;;1.60;;
21729;SDS011;11027;51.030;13.812;2023-03-14T03:00:51;3.28;;;1.42;;
21729;SDS011;11027;51.030;13.812;2023-03-14T03:03:17;1.20;;;1.10;;
21729;SDS011;11027;51.030;13.812;2023-03-14T03:05:42;0.60;;;0.60;;
21729;SDS011;11027;51.030;13.812;2023-03-14T03:08:08;2.30;;;0.85;;
21729;SDS011;11027;51.030;13.812;2023-03-14T03:10:34;0.80;;;0.68;;
21729;SDS011;11027;51.030;13.812;2023-03-14T03:12:59;0.90;;;0.90;;
21729;SDS011;11027;51.030;13.812;2023-03-14T03:15:25;3.97;;;1.10;;
21729;SDS011;11027;51.030;13.812;2023-03-14T03:17:51;1.38;;;1.17;;
21729;SDS011;11027;51.030;13.812;2023-03-14T03:20:16;0.80;;;0.80;;
21729;SDS011;11027;51.030;13.812;2023-03-14T03:22:41;0.80;;;0.80;;
21729;SDS011;11027;51.030;13.812;2023-03-14T03:25:07;1.27;;;0.93;;
21729;SDS011;11027;51.030;13.812;2023-03-14T03:27:34;1.60;;;1.08;;
21729;SDS011;11027;51.030;13.812;2023-03-14T03:30:01;1.63;;;1.10;;
21729;SDS011;11027;51.030;13.812;2023-03-14T03:32:27;3.42;;;0.60;;
21729;SDS011;11027;51.030;13.812;2023-03-14T03:34:52;1.25;;;0.80;;
21729;SDS011;11027;51.030;13.812;2023-03-14T03:37:18;0.80;;;0.70;;
21729;SDS011;11027;51.030;13.812;2023-03-14T03:39:43;1.48;;;1.30;;
21729;SDS011;11027;51.030;13.812;2023-03-14T03:42:08;1.17;;;0.90;;
21729;SDS011;11027;51.030;13.812;2023-03-14T03:44:34;1.50;;;0.98;;
21729;SDS011;11027;51.030;13.812;2023-03-14T03:46:59;1.15;;;1.00;;
21729;SDS011;11027;51.030;13.812;2023-03-14T03:49:28;1.70;;;0.70;;
21729;SDS011;11027;51.030;13.812;2023-03-14T03:51:54;0.77;;;0.75;;
21729;SDS011;11027;51.030;13.812;2023-03-14T03:54:19;1.27;;;0.90;;
21729;SDS011;11027;51.030;13.812;2023-03-14T03:56:45;1.38;;;0.82;;
21729;SDS011;11027;51.030;13.812;2023-03-14T03:59:10;1.15;;;0.60;;
21729;SDS011;11027;51.030;13.812;2023-03-14T04:01:35;0.90;;;0.60;;
21729;SDS011;11027;51.030;13.812;2023-03-14T04:04:00;1.63;;;0.50;;
21729;SDS011;11027;51.030;13.812;2023-03-14T04:06:26;0.20;;;0.20;;
21729;SDS011;11027;51.030;13.812;2023-03-14T04:08:51;0.90;;;0.30;;
21729;SDS011;11027;51.030;13.812;2023-03-14T04:11:16;0.40;;;0.40;;
21729;SDS011;11027;51.030;13.812;2023-03-14T04:13:42;0.30;;;0.30;;
21729;SDS011;11027;51.030;13.812;2023-03-14T04:16:14;0.55;;;0.40;;
21729;SDS011;11027;51.030;13.812;2023-03-14T04:18:42;3.00;;;0.30;;
21729;SDS011;11027;51.030;13.812;2023-03-14T04:21:07;0.20;;;0.20;;
21729;SDS011;11027;51.030;13.812;2023-03-14T04:23:32;0.38;;;0.20;;
21729;SDS011;11027;51.030;13.812;2023-03-14T04:25:58;0.20;;;0.20;;
21729;SDS011;11027;51.030;13.812;2023-03-14T04:28:23;0.20;;;0.20;;
21729;SDS011;11027;51.030;13.812;2023-03-14T04:30:49;0.20;;;0.20;;
21729;SDS011;11027;51.030;13.812;2023-03-14T04:33:14;0.50;;;0.30;;
21729;SDS011;11027;51.030;13.812;2023-03-14T04:35:42;0.25;;;0.15;;
21729;SDS011;11027;51.030;13.812;2023-03-14T04:38:08;0.73;;;0.30;;
21729;SDS011;11027;51.030;13.812;2023-03-14T04:40:33;0.73;;;0.20;;
21729;SDS011;11027;51.030;13.812;2023-03-14T04:42:58;0.60;;;0.30;;
21729;SDS011;11027;51.030;13.812;2023-03-14T04:45:23;0.20;;;0.20;;
21729;SDS011;11027;51.030;13.812;2023-03-14T04:47:49;0.10;;;0.10;;
21729;SDS011;11027;51.030;13.812;2023-03-14T04:50:14;0.32;;;0.17;;
21729;SDS011;11027;51.030;13.812;2023-03-14T04:52:39;0.80;;;0.35;;
21729;SDS011;11027;51.030;13.812;2023-03-14T04:55:05;0.52;;;0.20;;
21729;SDS011;11027;51.030;13.812;2023-03-14T04:57:30;1.35;;;0.30;;
21729;SDS011;11027;51.030;13.812;2023-03-14T04:59:55;0.13;;;0.10;;
21729;SDS011;11027;51.030;13.812;2023-03-14T05:02:24;1.10;;;0.30;;
21729;SDS011;11027;51.030;13.812;2023-03-14T05:04:50;0.32;;;0.20;;
21729;SDS011;11027;51.030;13.812;2023-03-14T05:07:16;0.60;;;0.40;;
21729;SDS011;11027;51.030;13.812;2023-03-14T05:09:41;0.30;;;0.25;;
21729;SDS011;11027;51.030;13.812;2023-03-14T05:12:06;1.60;;;0.50;;
21729;SDS011;11027;51.030;13.812;2023-03-14T05:14:31;1.38;;;0.30;;
21729;SDS011;11027;51.030;13.812;2023-03-14T05:16:57;2.38;;;0.52;;
21729;SDS011;11027;51.030;13.812;2023-03-14T05:19:22;1.38;;;0.50;;
21729;SDS011;11027;51.030;13.812;2023-03-14T05:21:47;1.40;;;0.45;;
21729;SDS011;11027;51.030;13.812;2023-03-14T05:24:12;1.65;;;0.57;;
21729;SDS011;11027;51.030;13.812;2023-03-14T05:26:38;1.92;;;0.60;;
21729;SDS011;11027;51.030;13.812;2023-03-14T05:29:03;3.88;;;0.50;;
21729;SDS011;11027;51.030;13.812;2023-03-14T05:31:28;1.98;;;0.55;;
21729;SDS011;11027;51.030;13.812;2023-03-14T05:33:53;3.92;;;0.57;;
21729;SDS011;11027;51.030;13.812;2023-03-14T05:36:19;0.88;;;0.47;;
21729;SDS011;11027;51.030;13.812;2023-03-14T05:38:44;3.22;;;0.60;;
21729;SDS011;11027;51.030;13.812;2023-03-14T05:41:09;6.13;;;0.80;;
21729;SDS011;11027;51.030;13.812;2023-03-14T05:43:34;3.00;;;1.00;;
21729;SDS011;11027;51.030;13.812;2023-03-14T05:46:00;2.20;;;0.90;;
21729;SDS011;11027;51.030;13.812;2023-03-14T05:48:25;2.90;;;0.80;;
21729;SDS011;11027;51.030;13.812;2023-03-14T05:50:56;2.25;;;0.70;;
21729;SDS011;11027;51.030;13.812;2023-03-14T05:53:22;4.30;;;1.15;;
21729;SDS011;11027;51.030;13.812;2023-03-14T05:55:50;1.80;;;0.68;;
21729;SDS011;11027;51.030;13.812;2023-03-14T05:58:16;4.15;;;1.00;;
21729;SDS011;11027;51.030;13.812;2023-03-14T06:00:41;2.83;;;0.75;;
21729;SDS011;11027;51.030;13.812;2023-03-14T06:03:06;3.60;;;1.70;;
21729;SDS011;11027;51.030;13.812;2023-03-14T06:05:31;4.35;;;2.28;;
21729;SDS011;11027;51.030;13.812;2023-03-14T06:07:57;3.35;;;1.20;;
21729;SDS011;11027;51.030;13.812;2023-03-14T06:10:22;3.15;;;0.90;;
21729;SDS011;11027;51.030;13.812;2023-03-14T06:12:47;4.78;;;1.10;;
21729;SDS011;11027;51.030;13.812;2023-03-14T06:15:13;3.40;;;0.63;;
21729;SDS011;11027;51.030;13.812;2023-03-14T06:17:38;4.22;;;0.70;;
21729;SDS011;11027;51.030;13.812;2023-03-14T06:20:04;1.58;;;0.60;;
21729;SDS011;11027;51.030;13.812;2023-03-14T06:22:29;4.03;;;0.95;;
21729;SDS011;11027;51.030;13.812;2023-03-14T06:24:54;6.88;;;1.50;;
21729;SDS011;11027;51.030;13.812;2023-03-14T06:27:20;4.32;;;1.30;;
21729;SDS011;11027;51.030;13.812;2023-03-14T06:29:45;5.00;;;0.77;;
21729;SDS011;11027;51.030;13.812;2023-03-14T06:32:10;2.28;;;0.90;;
21729;SDS011;11027;51.030;13.812;2023-03-14T06:34:35;6.18;;;1.10;;
21729;SDS011;11027;51.030;13.812;2023-03-14T06:37:01;3.95;;;0.68;;
21729;SDS011;11027;51.030;13.812;2023-03-14T06:39:26;6.15;;;1.35;;
21729;SDS011;11027;51.030;13.812;2023-03-14T06:41:51;3.83;;;1.08;;
21729;SDS011;11027;51.030;13.812;2023-03-14T06:44:16;4.97;;;1.40;;
21729;SDS011;11027;51.030;13.812;2023-03-14T06:46:42;2.55;;;1.02;;
21729;SDS011;11027;51.030;13.812;2023-03-14T06:49:07;5.75;;;1.10;;
21729;SDS011;11027;51.030;13.812;2023-03-14T06:51:32;4.88;;;1.60;;
21729;SDS011;11027;51.030;13.812;2023-03-14T06:53:58;6.85;;;1.73;;
21729;SDS011;11027;51.030;13.812;2023-03-14T06:56:23;4.18;;;1.30;;
21729;SDS011;11027;51.030;13.812;2023-03-14T06:58:48;6.00;;;1.17;;
21729;SDS011;11027;51.030;13.812;2023-03-14T07:01:17;4.53;;;1.00;;
21729;SDS011;11027;51.030;13.812;2023-03-14T07:03:46;2.92;;;0.95;;
21729;SDS011;11027;51.030;13.812;2023-03-14T07:06:11;3.50;;;0.95;;
21729;SDS011;11027;51.030;13.812;2023-03-14T07:08:36;3.33;;;0.90;;
21729;SDS011;11027;51.030;13.812;2023-03-14T07:11:03;6.00;;;1.10;;
21729;SDS011;11027;51.030;13.812;2023-03-14T07:13:28;4.13;;;1.30;;
21729;SDS011;11027;51.030;13.812;2023-03-14T07:15:53;5.55;;;1.45;;
21729;SDS011;11027;51.030;13.812;2023-03-14T07:18:18;4.22;;;1.05;;
21729;SDS011;11027;51.030;13.812;2023-03-14T07:20:44;2.05;;;0.90;;
21729;SDS011;11027;51.030;13.812;2023-03-14T07:23:10;5.63;;;1.10;;
21729;SDS011;11027;51.030;13.812;2023-03-14T07:25:35;3.33;;;0.85;;
21729;SDS011;11027;51.030;13.812;2023-03-14T07:28:01;4.90;;;1.60;;
21729;SDS011;11027;51.030;13.812;2023-03-14T07:30:26;6.60;;;1.60;;
21729;SDS011;11027;51.030;13.812;2023-03-14T07:32:51;6.03;;;1.50;;
21729;SDS011;11027;51.030;13.812;2023-03-14T07:35:16;9.60;;;1.60;;
21729;SDS011;11027;51.030;13.812;2023-03-14T07:37:42;4.75;;;1.02;;
21729;SDS011;11027;51.030;13.812;2023-03-14T07:40:07;4.75;;;1.20;;
21729;SDS011;11027;51.030;13.812;2023-03-14T07:42:33;4.40;;;1.40;;
21729;SDS011;11027;51.030;13.812;2023-03-14T07:44:58;4.00;;;1.42;;
21729;SDS011;11027;51.030;13.812;2023-03-14T07:47:24;3.13;;;1.00;;
21729;SDS011;11027;51.030;13.812;2023-03-14T07:49:49;3.97;;;1.20;;
21729;SDS011;11027;51.030;13.812;2023-03-14T07:52:14;3.95;;;1.40;;
21729;SDS011;11027;51.030;13.812;2023-03-14T07:54:39;5.95;;;2.08;;
21729;SDS011;11027;51.030;13.812;2023-03-14T07:57:05;4.22;;;1.50;;
21729;SDS011;11027;51.030;13.812;2023-03-14T07:59:30;8.00;;;2.00;;
21729;SDS011;11027;51.030;13.812;2023-03-14T08:01:55;4.30;;;1.60;;
21729;SDS011;11027;51.030;13.812;2023-03-14T08:04:21;7.47;;;1.52;;
21729;SDS011;11027;51.030;13.812;2023-03-14T08:06:46;5.68;;;1.20;;
21729;SDS011;11027;51.030;13.812;2023-03-14T08:09:11;7.28;;;1.17;;
21729;SDS011;11027;51.030;13.812;2023-03-14T08:11:36;2.88;;;0.95;;
21729;SDS011;11027;51.030;13.812;2023-03-14T08:14:02;4.88;;;1.48;;
21729;SDS011;11027;51.030;13.812;2023-03-14T08:16:27;8.25;;;4.05;;
21729;SDS011;11027;51.030;13.812;2023-03-14T08:18:52;3.25;;;1.13;;
21729;SDS011;11027;51.030;13.812;2023-03-14T08:21:18;3.10;;;1.13;;
21729;SDS011;11027;51.030;13.812;2023-03-14T08:23:43;3.75;;;0.85;;
21729;SDS011;11027;51.030;13.812;2023-03-14T08:26:08;2.17;;;0.70;;
21729;SDS011;11027;51.030;13.812;2023-03-14T08:28:33;4.10;;;0.82;;
21729;SDS011;11027;51.030;13.812;2023-03-14T08:30:59;2.97;;;0.88;;
21729;SDS011;11027;51.030;13.812;2023-03-14T08:33:26;1.30;;;0.47;;
21729;SDS011;11027;51.030;13.812;2023-03-14T08:35:56;5.43;;;0.90;;
21729;SDS011;11027;51.030;13.812;2023-03-14T08:38:24;1.53;;;0.50;;
21729;SDS011;11027;51.030;13.812;2023-03-14T08:40:54;1.80;;;0.80;;
21729;SDS011;11027;51.030;13.812;2023-03-14T08:43:20;2.88;;;0.68;;
21729;SDS011;11027;51.030;13.812;2023-03-14T08:45:45;0.57;;;0.30;;
21729;SDS011;11027;51.030;13.812;2023-03-14T08:48:10;1.77;;;0.45;;
21729;SDS011;11027;51.030;13.812;2023-03-14T08:50:36;3.03;;;0.60;;
21729;SDS011;11027;51.030;13.812;2023-03-14T08:53:01;3.22;;;0.80;;
21729;SDS011;11027;51.030;13.812;2023-03-14T08:55:27;0.80;;;0.40;;
21729;SDS011;11027;51.030;13.812;2023-03-14T08:57:52;4.63;;;0.80;;
21729;SDS011;11027;51.030;13.812;2023-03-14T09:00:18;2.22;;;0.63;;
21729;SDS011;11027;51.030;13.812;2023-03-14T09:02:44;2.95;;;0.80;;
21729;SDS011;11027;51.030;13.812;2023-03-14T09:05:09;3.78;;;1.63;;
21729;SDS011;11027;51.030;13.812;2023-03-14T09:07:35;2.35;;;0.50;;
21729;SDS011;11027;51.030;13.812;2023-03-14T09:10:01;2.38;;;0.40;;
21729;SDS011;11027;51.030;13.812;2023-03-14T09:12:26;1.67;;;0.70;;
21729;SDS011;11027;51.030;13.812;2023-03-14T09:14:51;3.05;;;0.77;;
21729;SDS011;11027;51.030;13.812;2023-03-14T09:17:17;2.28;;;0.60;;
21729;SDS011;11027;51.030;13.812;2023-03-14T09:19:42;2.75;;;0.60;;
21729;SDS011;11027;51.030;13.812;2023-03-14T09:22:07;5.00;;;0.80;;
21729;SDS011;11027;51.030;13.812;2023-03-14T09:24:32;3.40;;;0.68;;
21729;SDS011;11027;51.030;13.812;2023-03-14T09:26:58;1.08;;;0.55;;
21729;SDS011;11027;51.030;13.812;2023-03-14T09:29:23;2.60;;;0.70;;
21729;SDS011;11027;51.030;13.812;2023-03-14T09:31:49;2.88;;;0.60;;
21729;SDS011;11027;51.030;13.812;2023-03-14T09:34:14;2.25;;;0.60;;
21729;SDS011;11027;51.030;13.812;2023-03-14T09:36:39;2.03;;;0.82;;
21729;SDS011;11027;51.030;13.812;2023-03-14T09:39:05;3.50;;;0.70;;
21729;SDS011;11027;51.030;13.812;2023-03-14T09:41:34;3.75;;;2.47;;
21729;SDS011;11027;51.030;13.812;2023-03-14T09:44:04;2.30;;;0.70;;
21729;SDS011;11027;51.030;13.812;2023-03-14T09:49:02;2.53;;;0.60;;
21729;SDS011;11027;51.030;13.812;2023-03-14T09:51:27;1.77;;;0.70;;
21729;SDS011;11027;51.030;13.812;2023-03-14T09:53:54;1.98;;;0.60;;
21729;SDS011;11027;51.030;13.812;2023-03-14T09:56:20;1.83;;;0.57;;
21729;SDS011;11027;51.030;13.812;2023-03-14T09:58:56;0.63;;;0.47;;
21729;SDS011;11027;51.030;13.812;2023-03-14T10:01:26;3.35;;;0.57;;
21729;SDS011;11027;51.030;13.812;2023-03-14T10:03:54;1.25;;;0.38;;
21729;SDS011;11027;51.030;13.812;2023-03-14T10:06:21;1.30;;;0.40;;
21729;SDS011;11027;51.030;13.812;2023-03-14T10:08:50;1.48;;;0.60;;
21729;SDS011;11027;51.030;13.812;2023-03-14T10:11:18;3.60;;;1.70;;
21729;SDS011;11027;51.030;13.812;2023-03-14T10:13:47;2.40;;;1.00;;
21729;SDS011;11027;51.030;13.812;2023-03-14T10:16:38;0.98;;;0.47;;
21729;SDS011;11027;51.030;13.812;2023-03-14T10:19:08;2.45;;;0.52;;
21729;SDS011;11027;51.030;13.812;2023-03-14T10:21:37;1.85;;;0.52;;
21729;SDS011;11027;51.030;13.812;2023-03-14T10:24:27;2.22;;;0.55;;
21729;SDS011;11027;51.030;13.812;2023-03-14T10:26:55;1.42;;;0.52;;
21729;SDS011;11027;51.030;13.812;2023-03-14T10:29:26;1.50;;;0.50;;
21729;SDS011;11027;51.030;13.812;2023-03-14T10:31:57;0.88;;;0.40;;
21729;SDS011;11027;51.030;13.812;2023-03-14T10:34:30;4.32;;;0.70;;
21729;SDS011;11027;51.030;13.812;2023-03-14T10:36:58;1.35;;;0.50;;
21729;SDS011;11027;51.030;13.812;2023-03-14T10:39:50;1.83;;;0.50;;
21729;SDS011;11027;51.030;13.812;2023-03-14T10:42:21;2.65;;;1.00;;
21729;SDS011;11027;51.030;13.812;2023-03-14T10:44:53;2.63;;;0.65;;
21729;SDS011;11027;51.030;13.812;2023-03-14T10:47:22;5.10;;;0.68;;
21729;SDS011;11027;51.030;13.812;2023-03-14T10:49:49;4.50;;;0.60;;
21729;SDS011;11027;51.030;13.812;2023-03-14T10:52:18;2.00;;;0.77;;
21729;SDS011;11027;51.030;13.812;2023-03-14T10:54:47;1.88;;;0.57;;
21729;SDS011;11027;51.030;13.812;2023-03-14T10:57:21;4.78;;;1.92;;
21729;SDS011;11027;51.030;13.812;2023-03-14T10:59:47;4.85;;;1.48;;
21729;SDS011;11027;51.030;13.812;2023-03-14T11:03:13;4.22;;;1.55;;
21729;SDS011;11027;51.030;13.812;2023-03-14T11:05:17;2.40;;;0.70;;
21729;SDS011;11027;51.030;13.812;2023-03-14T11:07:59;1.20;;;0.40;;
21729;SDS011;11027;51.030;13.812;2023-03-14T11:10:34;3.25;;;0.60;;
21729;SDS011;11027;51.030;13.812;2023-03-14T11:13:06;4.45;;;0.77;;
21729;SDS011;11027;51.030;13.812;2023-03-14T11:18:44;6.70;;;4.90;;
21729;SDS011;11027;51.030;13.812;2023-03-14T11:21:35;2.88;;;0.80;;
21729;SDS011;11027;51.030;13.812;2023-03-14T11:24:11;2.00;;;0.60;;
21729;SDS011;11027;51.030;13.812;2023-03-14T11:30:01;1.48;;;0.73;;
21729;SDS011;11027;51.030;13.812;2023-03-14T11:32:43;4.30;;;0.73;;
21729;SDS011;11027;51.030;13.812;2023-03-14T11:40:30;0.50;;;0.25;;
21729;SDS011;11027;51.030;13.812;2023-03-14T11:43:01;0.43;;;0.30;;
21729;SDS011;11027;51.030;13.812;2023-03-14T11:45:35;1.02;;;0.40;;
21729;SDS011;11027;51.030;13.812;2023-03-14T11:50:59;2.22;;;0.70;;
21729;SDS011;11027;51.030;13.812;2023-03-14T11:53:39;1.23;;;0.40;;
21729;SDS011;11027;51.030;13.812;2023-03-14T11:56:14;2.47;;;0.43;;
21729;SDS011;11027;51.030;13.812;2023-03-14T11:58:54;4.20;;;0.40;;
21729;SDS011;11027;51.030;13.812;2023-03-14T12:01:25;0.95;;;0.30;;
21729;SDS011;11027;51.030;13.812;2023-03-14T12:04:01;2.00;;;0.40;;
21729;SDS011;11027;51.030;13.812;2023-03-14T12:06:54;4.20;;;0.45;;
21729;SDS011;11027;51.030;13.812;2023-03-14T12:09:22;1.35;;;0.30;;
21729;SDS011;11027;51.030;13.812;2023-03-14T12:11:56;2.22;;;0.43;;
21729;SDS011;11027;51.030;13.812;2023-03-14T12:16:55;1.88;;;1.30;;
21729;SDS011;11027;51.030;13.812;2023-03-14T12:21:49;3.27;;;0.67;;
21729;SDS011;11027;51.030;13.812;2023-03-14T12:24:18;1.65;;;0.38;;
21729;SDS011;11027;51.030;13.812;2023-03-14T12:26:52;1.33;;;0.47;;
21729;SDS011;11027;51.030;13.812;2023-03-14T12:29:19;1.42;;;0.40;;
21729;SDS011;11027;51.030;13.812;2023-03-14T12:31:46;0.80;;;0.30;;
21729;SDS011;11027;51.030;13.812;2023-03-14T12:34:33;1.83;;;0.40;;
21729;SDS011;11027;51.030;13.812;2023-03-14T12:37:12;2.78;;;0.45;;
21729;SDS011;11027;51.030;13.812;2023-03-14T12:39:53;1.02;;;0.20;;
21729;SDS011;11027;51.030;13.812;2023-03-14T12:45:13;1.60;;;0.50;;
21729;SDS011;11027;51.030;13.812;2023-03-14T12:50:07;2.13;;;0.30;;
21729;SDS011;11027;51.030;13.812;2023-03-14T12:52:58;1.05;;;0.40;;
21729;SDS011;11027;51.030;13.812;2023-03-14T12:55:45;0.88;;;0.30;;
21729;SDS011;11027;51.030;13.812;2023-03-14T13:00:58;3.00;;;0.40;;
21729;SDS011;11027;51.030;13.812;2023-03-14T13:03:26;1.00;;;0.20;;
21729;SDS011;11027;51.030;13.812;2023-03-14T13:06:04;2.42;;;0.20;;
21729;SDS011;11027;51.030;13.812;2023-03-14T13:11:01;2.10;;;0.40;;
21729;SDS011;11027;51.030;13.812;2023-03-14T13:13:29;1.95;;;0.20;;
21729;SDS011;11027;51.030;13.812;2023-03-14T13:15:55;0.40;;;0.10;;
21729;SDS011;11027;51.030;13.812;2023-03-14T13:18:39;1.05;;;0.13;;
21729;SDS011;11027;51.030;13.812;2023-03-14T13:21:17;1.00;;;0.40;;
21729;SDS011;11027;51.030;13.812;2023-03-14T13:26:25;0.40;;;0.05;;
21729;SDS011;11027;51.030;13.812;2023-03-14T13:28:58;0.50;;;0.10;;
21729;SDS011;11027;51.030;13.812;2023-03-14T13:31:24;0.22;;;0.10;;
21729;SDS011;11027;51.030;13.812;2023-03-14T13:34:00;0.70;;;0.20;;
21729;SDS011;11027;51.030;13.812;2023-03-14T13:36:26;0.25;;;0.10;;
21729;SDS011;11027;51.030;13.812;2023-03-14T13:38:58;1.98;;;0.20;;
21729;SDS011;11027;51.030;13.812;2023-03-14T13:41:26;0.73;;;0.22;;
21729;SDS011;11027;51.030;13.812;2023-03-14T13:43:52;0.55;;;0.25;;
21729;SDS011;11027;51.030;13.812;2023-03-14T13:46:35;0.32;;;0.30;;
21729;SDS011;11027;51.030;13.812;2023-03-14T13:49:02;1.27;;;0.10;;
21729;SDS011;11027;51.030;13.812;2023-03-14T13:51:30;7.88;;;0.25;;
21729;SDS011;11027;51.030;13.812;2023-03-14T13:54:00;1.58;;;0.30;;
21729;SDS011;11027;51.030;13.812;2023-03-14T13:56:30;1.58;;;0.20;;
21729;SDS011;11027;51.030;13.812;2023-03-14T14:01:23;1.17;;;0.20;;
21729;SDS011;11027;51.030;13.812;2023-03-14T14:03:53;0.93;;;0.20;;
21729;SDS011;11027;51.030;13.812;2023-03-14T14:06:39;0.32;;;0.15;;
21729;SDS011;11027;51.030;13.812;2023-03-14T14:09:12;0.68;;;0.20;;
21729;SDS011;11027;51.030;13.812;2023-03-14T14:14:21;0.28;;;0.20;;
21729;SDS011;11027;51.030;13.812;2023-03-14T14:16:53;0.20;;;0.10;;
21729;SDS011;11027;51.030;13.812;2023-03-14T14:19:19;0.40;;;0.20;;
21729;SDS011;11027;51.030;13.812;2023-03-14T14:21:48;0.47;;;0.30;;
21729;SDS011;11027;51.030;13.812;2023-03-14T14:24:14;0.75;;;0.20;;
21729;SDS011;11027;51.030;13.812;2023-03-14T14:26:41;0.43;;;0.22;;
21729;SDS011;11027;51.030;13.812;2023-03-14T14:29:20;2.78;;;0.55;;
21729;SDS011;11027;51.030;13.812;2023-03-14T14:32:10;0.82;;;0.13;;
21729;SDS011;11027;51.030;13.812;2023-03-14T14:34:39;0.90;;;0.38;;
21729;SDS011;11027;51.030;13.812;2023-03-14T14:37:04;0.25;;;0.10;;
21729;SDS011;11027;51.030;13.812;2023-03-14T14:39:30;0.20;;;0.10;;
21729;SDS011;11027;51.030;13.812;2023-03-14T14:41:56;0.80;;;0.28;;
21729;SDS011;11027;51.030;13.812;2023-03-14T14:44:29;2.17;;;0.10;;
21729;SDS011;11027;51.030;13.812;2023-03-14T14:46:57;0.20;;;0.20;;
21729;SDS011;11027;51.030;13.812;2023-03-14T14:49:28;0.40;;;0.40;;
21729;SDS011;11027;51.030;13.812;2023-03-14T14:52:02;0.45;;;0.10;;
21729;SDS011;11027;51.030;13.812;2023-03-14T14:54:37;0.90;;;0.60;;
21729;SDS011;11027;51.030;13.812;2023-03-14T14:57:05;0.52;;;0.30;;
21729;SDS011;11027;51.030;13.812;2023-03-14T14:59:42;0.98;;;0.30;;
21729;SDS011;11027;51.030;13.812;2023-03-14T15:02:09;0.70;;;0.20;;
21729;SDS011;11027;51.030;13.812;2023-03-14T15:04:51;0.10;;;0.10;;
21729;SDS011;11027;51.030;13.812;2023-03-14T15:07:16;0.52;;;0.10;;
21729;SDS011;11027;51.030;13.812;2023-03-14T15:09:42;0.25;;;0.10;;
21729;SDS011;11027;51.030;13.812;2023-03-14T15:12:08;0.50;;;0.35;;
21729;SDS011;11027;51.030;13.812;2023-03-14T15:14:33;1.20;;;0.20;;
21729;SDS011;11027;51.030;13.812;2023-03-14T15:16:58;0.43;;;0.40;;
21729;SDS011;11027;51.030;13.812;2023-03-14T15:19:24;0.30;;;0.20;;
21729;SDS011;11027;51.030;13.812;2023-03-14T15:21:53;1.42;;;0.20;;
21729;SDS011;11027;51.030;13.812;2023-03-14T15:24:18;4.60;;;3.08;;